< < Back
Terminal Aerodrome Forecast


Current Version              Previous Versions:   1  2  3  4  5  6  7  8  9  

Terminal Aerodrome Forecast

216
FTUS42 KCHS 011850 AAB
TAFSAV
TAF AMD
KSAV 011850Z 0119/0218 18010KT P6SM VCSH SCT030 BKN060
     FM012100 17011KT P6SM VCTS SCT030CB BKN060
     FM012300 16007KT P6SM SCT025 BKN250
     FM020800 18006KT P6SM SCT010 BKN035=

Latest METAR

658
SAUS80 KWBC 020600 CCA
MTRSAV
METAR KSAV 020553Z AUTO 17006KT 10SM CLR 23/21 A3003 RMK AO2 SLP168
60000 T02280211 10228 20211 55009 TSNO $


USA.gov is the U.S. government's official web portal to all federal, state and local government web resources and services.